createdAt,value
2022-09-25T00:01:31.049Z,3.50
2022-09-25T00:03:59.617Z,3.63
2022-09-25T00:06:29.714Z,3.70
2022-09-25T00:08:59.800Z,3.67
2022-09-25T00:11:29.490Z,3.30
2022-09-25T00:13:58.423Z,3.72
2022-09-25T00:16:30.538Z,3.45
2022-09-25T00:19:17.278Z,3.65
2022-09-25T00:21:45.746Z,3.63
2022-09-25T00:24:15.120Z,3.60
2022-09-25T00:26:44.567Z,3.75
2022-09-25T00:29:16.982Z,3.58
2022-09-25T00:31:45.520Z,3.42
2022-09-25T00:34:13.751Z,3.78
2022-09-25T00:36:42.143Z,3.72
2022-09-25T00:39:10.734Z,3.22
2022-09-25T00:41:40.142Z,3.40
2022-09-25T00:44:56.761Z,3.30
2022-09-25T00:47:46.138Z,3.22
2022-09-25T00:50:20.185Z,4.85
2022-09-25T00:52:48.886Z,4.32
2022-09-25T00:55:19.226Z,4.57
2022-09-25T00:57:49.741Z,3.92
2022-09-25T01:00:18.637Z,4.35
2022-09-25T01:02:54.248Z,3.50
2022-09-25T01:05:26.433Z,3.97
2022-09-25T01:07:57.272Z,3.63
2022-09-25T01:10:25.377Z,3.72
2022-09-25T01:12:55.733Z,3.05
2022-09-25T01:15:29.368Z,3.25
2022-09-25T01:18:04.613Z,3.38
2022-09-25T01:20:58.796Z,2.97
2022-09-25T01:23:49.899Z,2.83
2022-09-25T01:26:37.864Z,3.70
2022-09-25T01:29:13.068Z,3.28
2022-09-25T01:31:48.366Z,3.30
2022-09-25T01:34:22.509Z,3.22
2022-09-25T01:39:27.170Z,3.00
2022-09-25T01:42:02.229Z,3.63
2022-09-25T01:44:34.094Z,3.60
2022-09-25T01:47:09.614Z,3.95
2022-09-25T01:49:40.969Z,3.58
2022-09-25T01:52:15.661Z,3.28
2022-09-25T01:54:49.126Z,3.58
2022-09-25T01:57:23.743Z,4.07
2022-09-25T01:59:59.232Z,3.47
2022-09-25T02:02:32.415Z,2.88
2022-09-25T02:05:07.137Z,3.17
2022-09-25T02:07:38.656Z,3.13
2022-09-25T02:10:10.921Z,3.78
2022-09-25T02:12:43.450Z,3.70
2022-09-25T02:15:17.794Z,3.53
2022-09-25T02:18:08.091Z,3.08
2022-09-25T02:20:41.920Z,3.00
2022-09-25T02:23:18.561Z,2.90
2022-09-25T02:25:50.789Z,3.35
2022-09-25T02:28:19.432Z,3.17
2022-09-25T02:30:50.504Z,3.20
2022-09-25T02:33:18.914Z,3.38
2022-09-25T02:35:47.178Z,3.95
2022-09-25T02:38:16.113Z,3.28
2022-09-25T02:40:49.954Z,3.03
2022-09-25T02:43:32.122Z,2.90
2022-09-25T02:46:09.682Z,2.95
2022-09-25T02:48:49.462Z,3.05
2022-09-25T02:51:24.730Z,3.00
2022-09-25T02:54:01.198Z,2.90
2022-09-25T02:56:34.376Z,2.80
2022-09-25T02:59:06.979Z,3.03
2022-09-25T03:01:39.898Z,3.00
2022-09-25T03:04:09.960Z,2.97
2022-09-25T03:06:39.807Z,2.67
2022-09-25T03:09:08.954Z,3.10
2022-09-25T03:11:43.851Z,2.97
2022-09-25T03:14:12.138Z,2.85
2022-09-25T03:16:47.706Z,2.80
2022-09-25T03:19:16.536Z,2.80
2022-09-25T03:21:44.911Z,4.10
2022-09-25T03:24:13.248Z,2.80
2022-09-25T03:26:41.748Z,2.65
2022-09-25T03:29:10.694Z,2.50
2022-09-25T03:31:38.733Z,2.90
2022-09-25T03:34:08.330Z,2.72
2022-09-25T03:36:37.149Z,3.03
2022-09-25T03:39:06.189Z,2.88
2022-09-25T03:41:36.058Z,2.67
2022-09-25T03:44:05.345Z,2.80
2022-09-25T03:46:35.566Z,2.67
2022-09-25T03:49:04.938Z,2.85
2022-09-25T03:51:35.318Z,2.63
2022-09-25T03:54:04.343Z,2.80
2022-09-25T03:56:32.833Z,2.75
2022-09-25T03:59:01.278Z,3.03
2022-09-25T04:01:30.222Z,3.40
2022-09-25T04:04:03.331Z,3.08
2022-09-25T04:06:31.661Z,3.57
2022-09-25T04:09:01.375Z,3.00
2022-09-25T04:11:29.523Z,3.33
2022-09-25T04:13:58.113Z,3.95
2022-09-25T04:16:27.459Z,3.40
2022-09-25T04:18:55.717Z,3.40
2022-09-25T04:21:23.980Z,2.85
2022-09-25T04:24:06.104Z,3.17
2022-09-25T04:26:36.228Z,3.85
2022-09-25T04:29:04.984Z,2.97
2022-09-25T04:31:33.768Z,3.03
2022-09-25T04:34:03.434Z,3.20
2022-09-25T04:36:31.540Z,2.80
2022-09-25T04:38:59.695Z,3.25
2022-09-25T04:41:27.951Z,3.00
2022-09-25T04:43:57.299Z,2.85
2022-09-25T04:46:25.643Z,2.95
2022-09-25T04:48:53.805Z,3.33
2022-09-25T04:51:22.089Z,3.85
2022-09-25T04:53:52.213Z,3.97
2022-09-25T04:56:20.299Z,4.10
2022-09-25T04:58:49.953Z,3.33
2022-09-25T05:01:21.281Z,3.63
2022-09-25T05:03:50.297Z,3.85
2022-09-25T05:06:18.646Z,3.80
2022-09-25T05:08:49.624Z,3.28
2022-09-25T05:11:18.147Z,3.80
2022-09-25T05:13:46.855Z,3.65
2022-09-25T05:16:15.357Z,3.25
2022-09-25T05:18:44.829Z,3.05
2022-09-25T05:21:14.217Z,3.40
2022-09-25T05:23:42.344Z,2.85
2022-09-25T05:26:11.291Z,3.15
2022-09-25T05:28:39.411Z,2.60
2022-09-25T05:31:08.265Z,2.65
2022-09-25T05:33:36.988Z,2.50
2022-09-25T05:36:08.499Z,2.20
2022-09-25T05:38:38.157Z,2.60
2022-09-25T05:41:07.658Z,2.38
2022-09-25T05:43:40.381Z,2.42
2022-09-25T05:46:08.971Z,2.03
2022-09-25T05:48:37.429Z,2.00
2022-09-25T05:51:07.481Z,2.15
2022-09-25T05:53:36.787Z,2.15
2022-09-25T05:56:06.601Z,2.70
2022-09-25T05:58:36.083Z,2.35
2022-09-25T06:01:06.408Z,2.80
2022-09-25T06:03:34.744Z,2.63
2022-09-25T06:06:03.402Z,2.15
2022-09-25T06:08:35.557Z,2.72
2022-09-25T06:11:07.958Z,2.75
2022-09-25T06:13:37.429Z,2.92
2022-09-25T06:16:06.690Z,2.42
2022-09-25T06:18:34.896Z,2.60
2022-09-25T06:21:05.353Z,2.92
2022-09-25T06:23:34.917Z,2.20
2022-09-25T06:26:03.968Z,2.60
2022-09-25T06:28:32.236Z,2.40
2022-09-25T06:31:02.356Z,2.55
2022-09-25T06:33:30.937Z,2.13
2022-09-25T06:36:00.725Z,2.35
2022-09-25T06:38:29.274Z,2.55
2022-09-25T06:41:00.784Z,2.35
2022-09-25T06:43:30.512Z,2.70
2022-09-25T06:46:03.491Z,2.70
2022-09-25T06:48:32.300Z,3.00
2022-09-25T06:51:01.945Z,3.15
2022-09-25T06:53:30.256Z,3.08
2022-09-25T06:56:01.086Z,3.42
2022-09-25T06:58:30.661Z,3.08
2022-09-25T07:00:59.961Z,3.00
2022-09-25T07:03:45.588Z,3.58
2022-09-25T07:06:15.621Z,3.50
2022-09-25T07:08:44.808Z,3.30
2022-09-25T07:11:16.664Z,3.40
2022-09-25T07:13:45.197Z,3.05
2022-09-25T07:16:15.655Z,3.60
2022-09-25T07:18:44.874Z,3.70
2022-09-25T07:21:15.125Z,3.45
2022-09-25T07:23:43.937Z,3.90
2022-09-25T07:26:15.667Z,3.58
2022-09-25T07:28:45.167Z,3.40
2022-09-25T07:31:15.139Z,3.80
2022-09-25T07:33:43.594Z,3.58
2022-09-25T07:36:12.341Z,4.00
2022-09-25T07:38:41.307Z,3.83
2022-09-25T07:41:11.555Z,4.63
2022-09-25T07:43:42.287Z,4.55
2022-09-25T07:46:10.755Z,4.63
2022-09-25T07:48:39.052Z,4.32
2022-09-25T07:51:09.030Z,4.65
2022-09-25T07:53:37.389Z,3.80
2022-09-25T07:56:07.097Z,4.53
2022-09-25T07:58:36.522Z,4.75
2022-09-25T08:01:08.712Z,5.65
2022-09-25T08:03:37.001Z,5.43
2022-09-25T08:06:06.944Z,4.40
2022-09-25T08:08:35.643Z,4.13
2022-09-25T08:11:06.782Z,4.80
2022-09-25T08:13:35.865Z,4.28
2022-09-25T08:16:06.096Z,4.22
2022-09-25T08:18:34.294Z,4.57
2022-09-25T08:21:04.730Z,4.60
2022-09-25T08:23:33.401Z,4.00
2022-09-25T08:26:02.206Z,4.40
2022-09-25T08:28:31.965Z,3.92
2022-09-25T08:31:00.747Z,3.97
2022-09-25T08:33:30.311Z,4.03
2022-09-25T08:36:00.138Z,4.18
2022-09-25T08:38:29.349Z,3.05
2022-09-25T08:41:02.036Z,3.28
2022-09-25T08:43:32.140Z,3.20
2022-09-25T08:46:20.803Z,3.20
2022-09-25T08:49:06.311Z,2.80
2022-09-25T08:51:37.773Z,2.53
2022-09-25T08:54:06.873Z,2.40
2022-09-25T08:56:37.565Z,1.98
2022-09-25T08:59:12.203Z,1.77
2022-09-25T09:01:49.981Z,2.03
2022-09-25T09:04:25.611Z,1.88
2022-09-25T09:07:25.332Z,1.80
2022-09-25T09:09:56.404Z,1.65
2022-09-25T09:12:33.102Z,1.52
2022-09-25T09:15:16.610Z,1.58
2022-09-25T09:17:45.218Z,1.70
2022-09-25T09:20:19.999Z,1.20
2022-09-25T09:22:52.885Z,1.88
2022-09-25T09:25:30.127Z,1.50
2022-09-25T09:28:21.639Z,2.42
2022-09-25T09:30:59.190Z,1.33
2022-09-25T09:33:44.044Z,1.45
2022-09-25T09:36:20.990Z,1.38
2022-09-25T09:38:57.234Z,1.60
2022-09-25T09:41:41.079Z,1.52
2022-09-25T09:44:19.550Z,1.05
2022-09-25T09:46:59.041Z,1.48
2022-09-25T09:49:33.584Z,1.50
2022-09-25T09:52:10.329Z,1.40
2022-09-25T09:54:45.871Z,1.48
2022-09-25T09:57:20.248Z,1.60
2022-09-25T09:59:53.212Z,1.40
2022-09-25T10:02:33.915Z,1.10
2022-09-25T10:05:06.457Z,1.10
2022-09-25T10:07:39.425Z,1.10
2022-09-25T10:10:14.546Z,1.10
2022-09-25T10:12:47.517Z,1.13
2022-09-25T10:15:20.546Z,1.10
2022-09-25T10:17:49.206Z,1.00
2022-09-25T10:20:21.322Z,1.40
2022-09-25T10:22:56.520Z,1.10
2022-09-25T10:25:38.375Z,1.13
2022-09-25T10:28:29.481Z,1.00
2022-09-25T10:30:59.200Z,0.93
2022-09-25T10:33:29.239Z,1.27
2022-09-25T10:35:58.372Z,1.10
2022-09-25T10:38:38.480Z,1.13
2022-09-25T10:41:10.471Z,1.23
2022-09-25T10:43:52.452Z,0.98
2022-09-25T10:46:50.158Z,0.90
2022-09-25T10:49:47.570Z,0.98
2022-09-25T10:52:18.658Z,0.88
2022-09-25T10:54:48.289Z,1.00
2022-09-25T10:57:22.248Z,1.52
2022-09-25T10:59:52.187Z,1.23
2022-09-25T11:02:31.975Z,1.02
2022-09-25T11:05:00.632Z,1.25
2022-09-25T11:07:29.217Z,1.08
2022-09-25T11:10:00.345Z,1.00
2022-09-25T11:12:30.558Z,1.00
2022-09-25T11:15:03.174Z,1.00
2022-09-25T11:17:34.473Z,1.00
2022-09-25T11:20:21.782Z,0.75
2022-09-25T11:22:53.602Z,1.08
2022-09-25T11:25:28.578Z,0.82
2022-09-25T11:28:06.056Z,1.13
2022-09-25T11:30:50.441Z,0.80
2022-09-25T11:33:28.422Z,0.85
2022-09-25T11:36:01.480Z,0.93
2022-09-25T11:38:55.985Z,1.00
2022-09-25T11:41:31.767Z,1.10
2022-09-25T11:44:16.402Z,1.27
2022-09-25T11:46:51.495Z,0.90
2022-09-25T11:49:24.069Z,0.73
2022-09-25T11:52:29.439Z,1.00
2022-09-25T11:55:15.113Z,0.90
2022-09-25T11:57:56.044Z,0.93
2022-09-25T12:00:32.144Z,0.70
2022-09-25T12:03:22.501Z,0.85
2022-09-25T12:06:08.898Z,1.00
2022-09-25T12:08:50.529Z,1.00
2022-09-25T12:11:25.018Z,1.00
2022-09-25T12:14:03.364Z,0.90
2022-09-25T12:16:40.336Z,0.80
2022-09-25T12:19:24.657Z,1.30
2022-09-25T12:22:01.196Z,0.82
2022-09-25T12:24:42.005Z,0.80
2022-09-25T12:27:16.733Z,0.70
2022-09-25T12:30:07.885Z,0.90
2022-09-25T12:32:48.559Z,1.52
2022-09-25T12:35:30.645Z,1.08
2022-09-25T12:38:05.800Z,0.68
2022-09-25T12:40:38.976Z,0.63
2022-09-25T12:43:15.110Z,1.13
2022-09-25T12:45:50.272Z,0.90
2022-09-25T12:48:24.442Z,0.70
2022-09-25T12:51:04.301Z,1.13
2022-09-25T12:53:37.532Z,1.08
2022-09-25T12:56:15.018Z,1.00
2022-09-25T12:59:07.007Z,1.15
2022-09-25T13:01:46.003Z,1.02
2022-09-25T13:04:35.486Z,1.00
2022-09-25T13:07:11.965Z,0.90
2022-09-25T13:09:45.255Z,1.20
2022-09-25T13:12:48.972Z,0.80
2022-09-25T13:15:23.334Z,0.90
2022-09-25T13:17:53.075Z,1.10
2022-09-25T13:20:48.273Z,0.98
2022-09-25T13:23:27.717Z,1.20
2022-09-25T13:26:01.092Z,1.00
2022-09-25T13:28:34.333Z,1.00
2022-09-25T13:31:09.591Z,0.60
2022-09-25T13:33:48.993Z,0.73
2022-09-25T13:36:40.063Z,0.98
2022-09-25T13:39:36.500Z,0.75
2022-09-25T13:42:08.875Z,0.77
2022-09-25T13:45:03.371Z,0.50
2022-09-25T13:47:53.525Z,1.00
2022-09-25T13:50:39.324Z,0.80
2022-09-25T13:53:29.617Z,0.70
2022-09-25T13:56:47.222Z,0.70
2022-09-25T13:59:37.523Z,0.60
2022-09-25T14:02:37.160Z,0.80
2022-09-25T14:05:07.035Z,0.90
2022-09-25T14:07:37.179Z,1.20
2022-09-25T14:10:10.723Z,0.70
2022-09-25T14:12:44.053Z,1.10
2022-09-25T14:15:30.148Z,1.23
2022-09-25T14:18:00.918Z,0.73
2022-09-25T14:20:43.303Z,0.73
2022-09-25T14:23:23.403Z,0.52
2022-09-25T14:25:59.358Z,0.80
2022-09-25T14:28:30.288Z,1.02
2022-09-25T14:31:17.338Z,1.08
2022-09-25T14:34:08.914Z,1.30
2022-09-25T14:36:50.406Z,0.90
2022-09-25T14:39:30.503Z,0.90
2022-09-25T14:42:31.214Z,0.93
2022-09-25T14:45:28.254Z,1.00
2022-09-25T14:48:01.048Z,0.70
2022-09-25T14:50:33.028Z,1.17
2022-09-25T14:53:08.354Z,0.88
2022-09-25T14:55:39.997Z,0.77
2022-09-25T14:58:12.217Z,0.80
2022-09-25T15:00:47.189Z,0.75
2022-09-25T15:03:20.158Z,0.80
2022-09-25T15:05:50.080Z,0.80
2022-09-25T15:08:26.005Z,1.30
2022-09-25T15:11:05.470Z,1.17
2022-09-25T15:13:34.615Z,15.63
2022-09-25T15:16:21.757Z,1.60
2022-09-25T15:18:59.274Z,1.23
2022-09-25T15:21:32.243Z,3.28
2022-09-25T15:24:04.863Z,1.38
2022-09-25T15:26:39.335Z,1.40
2022-09-25T15:29:17.781Z,1.50
2022-09-25T15:31:51.068Z,1.80
2022-09-25T15:34:23.899Z,1.42
2022-09-25T15:36:52.628Z,1.20
2022-09-25T15:39:24.623Z,1.73
2022-09-25T15:41:54.386Z,1.60
2022-09-25T15:44:26.176Z,2.28
2022-09-25T15:46:56.982Z,2.10
2022-09-25T15:49:29.085Z,1.85
2022-09-25T15:52:00.321Z,1.80
2022-09-25T15:54:35.865Z,1.50
2022-09-25T15:57:09.844Z,1.70
2022-09-25T16:00:03.338Z,1.08
2022-09-25T16:02:52.382Z,2.15
2022-09-25T16:05:28.176Z,1.67
2022-09-25T16:08:27.551Z,1.42
2022-09-25T16:11:20.570Z,1.35
2022-09-25T16:13:52.165Z,1.80
2022-09-25T16:16:24.061Z,2.15
2022-09-25T16:18:54.663Z,1.80
2022-09-25T16:21:27.553Z,1.58
2022-09-25T16:23:59.028Z,2.10
2022-09-25T16:26:33.860Z,2.22
2022-09-25T16:29:10.024Z,1.75
2022-09-25T16:31:39.991Z,2.10
2022-09-25T16:34:16.454Z,1.98
2022-09-25T16:36:46.287Z,1.98
2022-09-25T16:39:27.679Z,2.03
2022-09-25T16:41:56.346Z,3.25
2022-09-25T16:44:39.888Z,1.90
2022-09-25T16:47:20.435Z,2.55
2022-09-25T16:49:49.616Z,2.25
2022-09-25T16:52:22.299Z,2.67
2022-09-25T16:54:53.936Z,2.10
2022-09-25T16:57:22.890Z,2.03
2022-09-25T16:59:53.651Z,2.25
2022-09-25T17:02:32.893Z,1.90
2022-09-25T17:05:03.332Z,2.33
2022-09-25T17:07:31.599Z,2.47
2022-09-25T17:10:01.020Z,2.50
2022-09-25T17:12:31.519Z,2.03
2022-09-25T17:15:01.156Z,2.55
2022-09-25T17:17:31.126Z,2.38
2022-09-25T17:19:59.356Z,2.13
2022-09-25T17:22:30.443Z,2.17
2022-09-25T17:25:02.880Z,1.65
2022-09-25T17:27:31.073Z,1.50
2022-09-25T17:30:01.302Z,1.40
2022-09-25T17:32:31.447Z,1.50
2022-09-25T17:35:02.054Z,1.80
2022-09-25T17:37:30.097Z,1.92
2022-09-25T17:39:59.262Z,1.73
2022-09-25T17:42:27.788Z,1.52
2022-09-25T17:44:57.647Z,1.83
2022-09-25T17:47:27.554Z,1.70
2022-09-25T17:49:57.686Z,2.00
2022-09-25T17:52:29.079Z,3.67
2022-09-25T17:54:57.482Z,3.80
2022-09-25T17:57:27.745Z,3.05
2022-09-25T17:59:56.092Z,2.45
2022-09-25T18:02:28.906Z,2.15
2022-09-25T18:04:58.584Z,2.33
2022-09-25T18:07:31.243Z,2.40
2022-09-25T18:10:01.614Z,2.22
2022-09-25T18:12:29.653Z,2.20
2022-09-25T18:14:57.805Z,2.42
2022-09-25T18:17:25.935Z,2.78
2022-09-25T18:20:11.545Z,2.35
2022-09-25T18:22:41.717Z,2.25
2022-09-25T18:25:10.695Z,2.58
2022-09-25T18:27:42.351Z,2.72
2022-09-25T18:30:15.302Z,2.83
2022-09-25T18:32:44.343Z,2.72
2022-09-25T18:35:14.524Z,3.35
2022-09-25T18:37:45.008Z,2.72
2022-09-25T18:40:17.266Z,3.30
2022-09-25T18:42:45.577Z,2.70
2022-09-25T18:45:14.840Z,3.10
2022-09-25T18:47:43.711Z,3.22
2022-09-25T18:50:15.482Z,3.00
2022-09-25T18:52:47.999Z,2.53
2022-09-25T18:55:16.843Z,3.38
2022-09-25T18:57:44.914Z,3.30
2022-09-25T19:00:13.703Z,3.22
2022-09-25T19:02:42.907Z,2.95
2022-09-25T19:05:11.413Z,2.90
2022-09-25T19:07:39.534Z,2.80
2022-09-25T19:10:11.017Z,2.65
2022-09-25T19:12:39.124Z,2.72
2022-09-25T19:15:07.912Z,2.78
2022-09-25T19:17:37.248Z,2.83
2022-09-25T19:20:05.952Z,3.10
2022-09-25T19:22:34.149Z,2.78
2022-09-25T19:25:03.902Z,3.22
2022-09-25T19:27:33.585Z,3.35
2022-09-25T19:30:02.383Z,3.40
2022-09-25T19:32:30.863Z,3.67
2022-09-25T19:34:59.694Z,3.88
2022-09-25T19:37:30.109Z,2.90
2022-09-25T19:40:16.010Z,3.35
2022-09-25T19:42:46.222Z,3.30
2022-09-25T19:45:14.755Z,2.80
2022-09-25T19:47:43.085Z,3.10
2022-09-25T19:50:12.675Z,2.55
2022-09-25T19:52:40.715Z,2.72
2022-09-25T19:55:09.496Z,2.80
2022-09-25T19:57:37.875Z,3.65
2022-09-25T20:00:09.809Z,3.83
2022-09-25T20:02:37.831Z,3.33
2022-09-25T20:05:06.711Z,2.97
2022-09-25T20:07:34.781Z,3.30
2022-09-25T20:10:02.932Z,2.83
2022-09-25T20:12:31.556Z,2.58
2022-09-25T20:14:59.599Z,2.88
2022-09-25T20:17:29.020Z,2.85
2022-09-25T20:19:57.134Z,2.47
2022-09-25T20:22:25.454Z,2.60
2022-09-25T20:24:53.540Z,2.72
2022-09-25T20:27:23.497Z,2.67
2022-09-25T20:29:51.786Z,2.83
2022-09-25T20:32:20.024Z,2.60
2022-09-25T20:34:49.459Z,2.70
2022-09-25T20:37:17.512Z,3.17
2022-09-25T20:39:45.877Z,3.28
2022-09-25T20:42:14.005Z,3.15
2022-09-25T20:44:42.155Z,3.17
2022-09-25T20:47:10.341Z,3.00
2022-09-25T20:49:39.455Z,3.40
2022-09-25T20:52:10.160Z,3.35
2022-09-25T20:54:39.180Z,3.17
2022-09-25T20:57:07.507Z,3.05
2022-09-25T20:59:35.837Z,3.40
2022-09-25T21:02:05.169Z,2.97
2022-09-25T21:04:33.711Z,3.20
2022-09-25T21:07:01.799Z,3.25
2022-09-25T21:09:31.339Z,3.75
2022-09-25T21:12:00.110Z,3.45
2022-09-25T21:14:29.644Z,3.00
2022-09-25T21:16:57.933Z,3.05
2022-09-25T21:19:27.380Z,3.70
2022-09-25T21:21:55.622Z,3.30
2022-09-25T21:24:23.872Z,3.22
2022-09-25T21:26:53.343Z,3.70
2022-09-25T21:29:21.698Z,3.05
2022-09-25T21:31:50.988Z,2.90
2022-09-25T21:34:20.390Z,3.60
2022-09-25T21:36:49.047Z,3.45
2022-09-25T21:39:17.276Z,3.78
2022-09-25T21:41:45.493Z,3.17
2022-09-25T21:44:16.908Z,3.10
2022-09-25T21:46:45.531Z,3.65
2022-09-25T21:49:18.470Z,3.50
2022-09-25T21:51:47.415Z,2.90
2022-09-25T21:54:16.924Z,3.35
2022-09-25T21:56:45.543Z,3.75
2022-09-25T21:59:15.531Z,3.40
2022-09-25T22:01:44.614Z,3.50
2022-09-25T22:04:14.478Z,3.97
2022-09-25T22:06:45.433Z,3.22
2022-09-25T22:09:15.788Z,3.20
2022-09-25T22:11:44.809Z,2.60
2022-09-25T22:14:16.516Z,3.47
2022-09-25T22:16:46.577Z,3.03
2022-09-25T22:19:18.423Z,2.97
2022-09-25T22:21:48.396Z,2.92
2022-09-25T22:24:16.749Z,3.20
2022-09-25T22:26:46.975Z,3.38
2022-09-25T22:29:17.663Z,3.13
2022-09-25T22:31:46.079Z,3.15
2022-09-25T22:34:19.131Z,3.92
2022-09-25T22:36:48.315Z,3.38
2022-09-25T22:39:18.314Z,2.63
2022-09-25T22:41:49.410Z,3.40
2022-09-25T22:44:19.786Z,3.40
2022-09-25T22:46:48.201Z,3.28
2022-09-25T22:49:16.333Z,3.33
2022-09-25T22:51:44.790Z,3.90
2022-09-25T22:54:14.782Z,3.63
2022-09-25T22:56:44.142Z,3.80
2022-09-25T22:59:16.289Z,3.65
2022-09-25T23:01:47.865Z,3.97
2022-09-25T23:04:18.128Z,3.42
2022-09-25T23:06:46.670Z,3.55
2022-09-25T23:09:16.766Z,3.60
2022-09-25T23:11:45.203Z,3.70
2022-09-25T23:14:16.859Z,3.78
2022-09-25T23:16:47.812Z,3.90
2022-09-25T23:19:16.545Z,3.90
2022-09-25T23:21:44.907Z,4.03
2022-09-25T23:24:14.937Z,4.38
2022-09-25T23:26:43.591Z,3.60
2022-09-25T23:29:13.587Z,4.07
2022-09-25T23:31:43.037Z,4.30
2022-09-25T23:34:13.005Z,4.53
2022-09-25T23:36:41.838Z,4.88
2022-09-25T23:39:12.916Z,4.75
2022-09-25T23:41:41.337Z,4.65
2022-09-25T23:44:10.770Z,5.03
2022-09-25T23:46:42.100Z,4.97
2022-09-25T23:49:12.474Z,5.30
2022-09-25T23:51:40.849Z,4.97
2022-09-25T23:54:09.423Z,5.35
2022-09-25T23:56:38.128Z,4.88
2022-09-25T23:59:06.735Z,4.30
